Sargodha Weather



Sargodha's Current Weather

Temprature 37.87o clear sky

clear sky

Rain: 0 %

Min Temprature37.87o
Max Temprature37.87o
Humidity35
Wind Speed5.03 m/h
Sun Rise05:08:20
Sun Set19:19:09
Current Time: 05-Jul-2020 18:00:35
Lat/Lon: 32.08, 72.67




Sargodha's Geo Location



Sargodha's Weather Forecast

Time Overall Temp Min Temp Max Temp Humidity Wind Speed Rain
05-Jul-2020 (Sun)
20:00:00 light rain 37.170 35.760 37.170 35 2.68 m/h 23 %
23:00:00 light rain 33.970 32.720 33.970 44 1.96 m/h 96 %
06-Jul-2020 (Mon)
02:00:00 few clouds 32.740 32.350 32.740 48 0.55 m/h 0 %
05:00:00 few clouds 31.170 31.110 31.170 52 1.68 m/h 0 %
08:00:00 clear sky 35.320 35.320 35.320 38 2.63 m/h 0 %
11:00:00 clear sky 39.530 39.530 39.530 26 3.13 m/h 0 %
14:00:00 clear sky 42.580 42.580 42.580 17 2.93 m/h 0 %
17:00:00 clear sky 43.240 43.240 43.240 14 2.56 m/h 0 %
20:00:00 broken clouds 39.820 39.820 39.820 18 2.35 m/h 0 %
23:00:00 broken clouds 37.860 37.860 37.860 21 1.02 m/h 0 %
07-Jul-2020 (Tue)
02:00:00 clear sky 36.160 36.160 36.160 25 1.27 m/h 0 %
05:00:00 clear sky 34.830 34.830 34.830 25 2.01 m/h 0 %
08:00:00 scattered clouds 39.030 39.030 39.030 19 3.84 m/h 0 %
11:00:00 broken clouds 43.380 43.380 43.380 15 3.23 m/h 0 %
14:00:00 overcast clouds 45.480 45.480 45.480 12 2.95 m/h 0 %
17:00:00 overcast clouds 44.990 44.990 44.990 13 2.04 m/h 0 %
20:00:00 broken clouds 41.460 41.460 41.460 17 1.05 m/h 0 %
23:00:00 broken clouds 39.830 39.830 39.830 19 2.25 m/h 0 %
08-Jul-2020 (Wed)
02:00:00 few clouds 37.420 37.420 37.420 29 3.76 m/h 0 %
05:00:00 few clouds 35.540 35.540 35.540 35 2.76 m/h 0 %
08:00:00 clear sky 39.140 39.140 39.140 31 4.29 m/h 0 %
11:00:00 clear sky 43.600 43.600 43.600 21 2.27 m/h 0 %
14:00:00 clear sky 47.240 47.240 47.240 13 0.41 m/h 0 %
17:00:00 scattered clouds 45.860 45.860 45.860 14 1.33 m/h 0 %
20:00:00 few clouds 42.560 42.560 42.560 18 4.13 m/h 0 %
23:00:00 clear sky 38.710 38.710 38.710 31 5.27 m/h 0 %
09-Jul-2020 (Thu)
02:00:00 few clouds 37.350 37.350 37.350 34 2.24 m/h 0 %
05:00:00 clear sky 35.810 35.810 35.810 38 3.84 m/h 0 %
08:00:00 clear sky 39.030 39.030 39.030 32 3.12 m/h 0 %
11:00:00 clear sky 43.230 43.230 43.230 24 2.94 m/h 0 %
14:00:00 few clouds 46.670 46.670 46.670 16 2.34 m/h 0 %
17:00:00 scattered clouds 45.560 45.560 45.560 17 4.43 m/h 0 %
20:00:00 light rain 39.140 39.140 39.140 28 6.8 m/h 102 %
23:00:00 broken clouds 38.340 38.340 38.340 32 5.45 m/h 0 %
10-Jul-2020 (Fri)
02:00:00 moderate rain 32.160 32.160 32.160 52 7.55 m/h 481 %
05:00:00 light rain 31.040 31.040 31.040 61 7.99 m/h 196 %
08:00:00 light rain 33.090 33.090 33.090 55 5.92 m/h 14 %
11:00:00 clear sky 38.380 38.380 38.380 41 2.89 m/h 0 %
14:00:00 clear sky 42.190 42.190 42.190 29 2.85 m/h 0 %
17:00:00 light rain 43.460 43.460 43.460 24 2.1 m/h 13 %

Famous Cities (60)